Springfork, Missouri
Current Conditions -  °F | °C
As of 2:53 AM on Monday 20 Oct 2014 (Local Time) from KDMO Reporting Station
Clear Clear  
Wind Chill: 55°   Ceiling: Unl
Heat Index: 55°   Visibility: 10mi
Dew Point: 50°   Wind: 8mph
Humidity: 83%   Direction: 230°SW
Pressure: 30.02"   Gusts: NA
Location:  38.6763°N, 93.2612°W
Report Text: KDMO 200753Z AUTO 23007KT 10SM CLR 13/10 A3002 RMK AO2 SLP161 T01280100
Loading
Personal Weather Stations






























Interactive Weather Map
Tropical Storm Tracking
New forecast layout! Learn more

10-Day Weather Forecast

Advertisements
Track Severe Weather on mobile